Latest Coastal Weather Observations for Groote Eylandt Airport

IDD60701

Issued at 1:51 pm CST Friday 1 July 2016 (issued every 10 minutes, with the page automatically refreshed every 10 minutes)

About coastal observations | Map of coastal stations | Coastal observations for NT | Marine services | Other Formats
Station Details ID: 014518 Name: GROOTE EYLANDT AIRPORT Lat: -13.97 Lon: 136.46 Height: 13.7 m
Data from the previous 72 hours. | See also: Recent months at Groote Eylandt Airport
Date/Time
CST
Temp
°C
Wind Pressure Rain since
9am
mm
Weather Cloud Vis
km
Sea
Height
m
Swell
Dir  Spd
kts
Gust
kts
hPa Trend Height
m
Period
s
Dir
01/01:30pm 29.4 E 10 15 1015.0 - 0.0 - Partly cloudy 10 - - - -
01/01:00pm 28.9 ESE 9 15 1015.3 - 0.0 - Partly cloudy 10 - - - -
01/12:30pm 29.4 ESE 12 19 1015.7 - 0.0 - Partly cloudy 10 - - - -
01/12:00pm 28.5 ESE 11 16 1016.0 - 0.0 - Mostly clear 10 - - - -
01/11:30am 28.5 ESE 13 20 1016.4 - 0.0 - Partly cloudy 10 - - - -
01/11:00am 27.9 ESE 10 17 1016.7 - 0.0 - Partly cloudy 10 - - - -
01/10:30am 28.4 E 14 21 1016.8 - 0.0 - Partly cloudy 10 - - - -
01/10:00am 27.4 ESE 11 20 1017.0 - 0.0 - Partly cloudy 10 - - - -
01/09:30am 27.2 ESE 8 17 1017.1 - 0.0 - - 10 - - - -
01/09:00am 25.2 SSE 3 5 1017.3 - 0.0 - Mostly clear 10 - - - -
01/08:30am 22.1 ENE 1 4 1017.2 - 0.0 - Partly cloudy 10 - - - -
01/08:00am 18.1 CALM 0 0 1017.1 - 0.0 - Partly cloudy 10 - - - -
01/07:30am 16.1 CALM 0 2 1016.9 - 0.0 - - 10 - - - -
01/07:00am 15.5 CALM 0 0 1016.6 - 0.0 - - 10 - - - -
01/06:30am 15.5 CALM 0 0 1016.2 - 0.0 - - 10 - - - -
01/06:00am 15.8 CALM 0 0 1015.9 - 0.0 - - 10 - - - -
01/05:30am 15.9 CALM 0 0 1015.5 - 0.0 - - 10 - - - -
01/05:00am 16.3 CALM 0 0 1015.3 - 0.0 - - 10 - - - -
01/04:30am 16.6 CALM 0 0 1015.1 - 0.0 - - 10 - - - -
01/04:00am 17.1 CALM 0 0 1014.9 - 0.0 - - 10 - - - -
01/03:30am 17.3 ESE 1 3 1014.8 - 0.0 - - 10 - - - -
01/03:00am 17.7 CALM 0 0 1014.9 - 0.0 - - 10 - - - -
01/02:30am 18.2 CALM 0 0 1014.9 - 0.0 - - 10 - - - -
01/02:00am 18.8 ESE 3 4 1015.2 - 0.0 - - 10 - - - -
01/01:30am 19.1 ESE 4 5 1015.6 - 0.0 - - 10 - - - -
01/01:00am 19.5 ESE 3 4 1016.0 - 0.0 - - 10 - - - -
01/12:30am 20.3 ESE 3 3 1016.1 - 0.0 - - 10 - - - -
01/12:00am 21.1 SE 3 5 1016.3 - 0.0 - - 10 - - - -
 
Date/Time
CST
Temp
°C
Wind Pressure Rain since
9am
mm
Weather Cloud Vis
km
Sea
Height
m
Swell
Dir  Spd
kts
Gust
kts
hPa Trend Height
m
Period
s
Dir
30/11:30pm 21.7 ESE 4 5 1016.2 - 0.0 - - 10 - - - -
30/11:00pm 22.2 ESE 4 5 1016.2 - 0.0 - - 10 - - - -
30/10:30pm 22.9 ESE 5 7 1016.3 - 0.0 - - 10 - - - -
30/10:00pm 23.4 ESE 6 9 1016.3 - 0.0 - - 10 - - - -
30/09:30pm 23.6 ESE 5 8 1016.6 - 0.0 - - 10 - - - -
30/09:00pm 23.8 ESE 5 9 1016.6 - 0.0 - - 10 - - - -
30/08:30pm 23.8 ESE 5 7 1016.5 - 0.0 - - 10 - - - -
30/08:00pm 23.9 SE 4 6 1016.4 - 0.0 - - 10 - - - -
30/07:30pm 24.1 SE 4 8 1016.0 - 0.0 - - 10 - - - -
30/07:00pm 24.5 ESE 5 10 1015.4 - 0.0 - - 10 - - - -
30/06:30pm 24.9 SE 6 13 1015.3 - 0.0 - - 10 - - - -
30/06:00pm 25.5 SE 7 14 1015.0 - 0.0 - - 10 - - - -
30/05:30pm 26.2 SE 7 12 1014.7 - 0.0 - - 10 - - - -
30/05:00pm 26.7 SE 7 12 1014.5 - 0.0 - - 10 - - - -
30/04:30pm 27.1 SE 9 14 1014.3 - 0.0 - Partly cloudy 10 - - - -
30/04:00pm 27.0 ESE 8 13 1014.3 - 0.0 - Partly cloudy 10 - - - -
30/03:30pm 27.7 SE 9 17 1014.3 - 0.0 - Partly cloudy 10 - - - -
30/03:00pm 28.2 SE 10 15 1014.4 - 0.0 - Partly cloudy 10 - - - -
30/02:30pm 28.1 ESE 9 17 1014.7 - 0.0 - Partly cloudy 10 - - - -
30/02:00pm 28.6 SE 10 18 1015.0 - 0.0 - Partly cloudy 10 - - - -
30/01:30pm 28.1 SE 8 18 1015.2 - 0.0 - Partly cloudy 10 - - - -
30/01:00pm 27.9 SE 8 14 1015.8 - 0.0 - Partly cloudy 10 - - - -
30/12:30pm 28.9 ESE 7 12 1016.3 - 0.0 - Partly cloudy 10 - - - -
30/12:00pm 27.9 SE 10 17 1016.7 - 0.0 - Cloudy 10 - - - -
30/11:30am 29.4 SSE 7 12 1017.0 - 0.0 - Partly cloudy 10 - - - -
30/11:00am 28.5 ESE 9 13 1017.3 - 0.0 - Partly cloudy 10 - - - -
30/10:30am 28.9 ESE 8 13 1017.5 - 0.0 - Partly cloudy 10 - - - -
30/10:00am 27.2 ESE 8 12 1017.9 - 0.0 - Partly cloudy 10 - - - -
30/09:30am 26.8 SE 7 12 1017.8 - 0.0 - Partly cloudy 10 - - - -
30/09:00am 25.8 SE 8 13 1017.6 - 0.0 - - 10 - - - -
30/08:30am 25.1 SE 6 11 1017.2 - 0.0 - - 10 - - - -
30/08:00am 23.8 SE 4 5 1016.8 - 0.0 - - 10 - - - -
30/07:30am 22.2 SE 3 5 1016.4 - 0.0 - - 10 - - - -
30/07:00am 21.2 SE 3 5 1016.1 - 0.0 - - 10 - - - -
30/06:30am 20.5 SE 3 4 1016.0 - 0.0 - - 10 - - - -
30/06:00am 20.4 SE 3 5 1015.9 - 0.0 - - 10 - - - -
30/05:30am 20.0 CALM 0 3 1015.8 - 0.0 - - 10 - - - -
30/05:00am 20.2 CALM 0 0 1015.5 - 0.0 - - 10 - - - -
30/04:30am 20.5 CALM 0 0 1015.3 - 0.0 - - 10 - - - -
30/04:00am 21.1 CALM 0 0 1015.3 - 0.0 - - 10 - - - -
30/03:30am 21.7 CALM 0 0 1015.3 - 0.0 - - 10 - - - -
30/03:00am 22.2 ESE 3 4 1015.3 - 0.0 - - 10 - - - -
30/02:30am 22.5 ESE 4 5 1015.5 - 0.0 - - 10 - - - -
30/02:00am 22.1 SE 3 4 1015.9 - 0.0 - - 10 - - - -
30/01:30am 22.5 SSE 3 5 1016.2 - 0.0 - - 10 - - - -
30/01:00am 22.6 SE 3 5 1016.5 - 0.0 - - 10 - - - -
30/12:30am 22.5 SE 4 6 1016.6 - 0.0 - - 10 - - - -
30/12:00am 22.0 SE 4 5 1016.8 - 0.0 - - 10 - - - -
 
Date/Time
CST
Temp
°C
Wind Pressure Rain since
9am
mm
Weather Cloud Vis
km
Sea
Height
m
Swell
Dir  Spd
kts
Gust
kts
hPa Trend Height
m
Period
s
Dir
29/11:30pm 22.4 ESE 4 5 1016.8 - 0.0 - - 10 - - - -
29/11:00pm 22.4 ESE 3 5 1016.7 - 0.0 - - 10 - - - -
29/10:30pm 22.0 CALM 0 3 1016.8 - 0.0 - - 10 - - - -
29/10:00pm 22.1 CALM 0 0 1016.8 - 0.0 - - 10 - - - -
29/09:30pm 22.2 S 3 4 1016.8 - 0.0 - - 10 - - - -
29/09:00pm 22.6 CALM 0 0 1016.7 - 0.0 - - 10 - - - -
29/08:30pm 23.4 CALM 0 2 1016.5 - 0.0 - - 10 - - - -
29/08:00pm 23.6 SE 3 5 1016.2 - 0.0 - - 10 - - - -
29/07:30pm 23.5 SSE 4 5 1015.9 - 0.0 - Partly cloudy 10 - - - -
29/07:00pm 23.8 CALM 0 0 1015.6 - 0.0 - - 10 - - - -
29/06:30pm 24.3 SE 3 5 1015.3 - 0.0 - Partly cloudy 10 - - - -
29/06:00pm 25.0 S 4 6 1015.0 - 0.0 - Mostly cloudy 10 - - - -
29/05:30pm 25.7 ESE 5 8 1015.0 - 0.0 - Partly cloudy 10 - - - -
29/05:00pm 26.0 ESE 5 8 1014.7 - 0.0 - Partly cloudy 10 - - - -
29/04:30pm 26.4 SE 6 10 1014.5 - 0.0 - Partly cloudy 10 - - - -
29/04:00pm 26.6 ESE 7 11 1014.2 - 0.0 - Partly cloudy 10 - - - -
29/03:30pm 26.5 SE 6 11 1014.2 - 0.0 - Cloudy 10 - - - -
29/03:00pm 26.5 ESE 8 15 1014.3 - 0.0 - Cloudy 10 - - - -
29/02:30pm 27.4 E 8 14 1014.5 - 0.0 - Cloudy 10 - - - -
29/02:00pm 27.0 ESE 7 9 1014.8 - 0.0 - Cloudy 10 - - - -
29/01:30pm 28.1 ESE 8 14 1015.2 - 0.0 - Partly cloudy 10 - - - -
29/01:00pm 27.7 ESE 9 17 1015.6 - 0.0 - Partly cloudy 10 - - - -
29/12:30pm 27.0 SE 9 16 1016.3 - 0.0 - Partly cloudy 10 - - - -
29/12:00pm 27.2 ESE 9 14 1016.9 - 0.0 - - 10 - - - -
29/11:30am 27.5 SE 7 14 1017.5 - 0.0 - - 10 - - - -
29/11:00am 26.2 SE 10 17 1017.7 - 0.0 - - 10 - - - -
29/10:30am 26.3 ESE 8 14 1018.0 - 0.0 - - 10 - - - -
29/10:00am 25.7 SE 9 16 1017.9 - 0.0 - - 10 - - - -
29/09:30am 25.1 SE 10 15 1017.9 - 0.0 - - 10 - - - -
29/09:00am 24.7 SE 9 14 1017.8 - 0.0 - - 10 - - - -
29/08:30am 24.1 SE 7 16 1017.5 - 0.0 - - 10 - - - -
29/08:00am 23.4 SE 6 11 1017.3 - 0.0 - - 10 - - - -
29/07:30am 22.7 ESE 7 11 1017.3 - 0.0 - - 10 - - - -
29/07:00am 22.4 ESE 7 12 1017.1 - 0.0 - - 10 - - - -
29/06:30am 22.3 SE 6 10 1016.6 - 0.0 - - 10 - - - -
29/06:00am 22.6 ESE 6 9 1016.5 - 0.0 - - 10 - - - -
29/05:30am 23.0 SE 7 11 1016.2 - 0.0 - - 10 - - - -
29/05:00am 23.2 SE 7 11 1016.0 - 0.0 - - 10 - - - -
29/04:30am 23.2 SE 6 10 1015.9 - 0.0 - - 10 - - - -
29/04:00am 23.0 SE 6 10 1015.8 - 0.0 - - 10 - - - -
29/03:30am 22.8 SE 5 9 1015.9 - 0.0 - - 10 - - - -
29/03:00am 22.7 SE 5 9 1016.0 - 0.0 - Partly cloudy 10 - - - -
29/02:30am 22.6 SE 4 8 1016.2 - 0.0 - - 10 - - - -
29/02:00am 22.8 SE 4 7 1016.5 - 0.0 - - 10 - - - -
29/01:30am 22.8 ESE 4 7 1016.6 - 0.0 - - 10 - - - -
29/01:00am 22.8 ESE 5 7 1016.7 - 0.0 - - 10 - - - -
29/12:30am 22.6 ESE 4 6 1016.8 - 0.0 - - 10 - - - -
29/12:00am 22.7 ESE 5 8 1016.8 - 0.0 - - 10 - - - -
 
Date/Time
CST
Temp
°C
Wind Pressure Rain since
9am
mm
Weather Cloud Vis
km
Sea
Height
m
Swell
Dir  Spd
kts
Gust
kts
hPa Trend Height
m
Period
s
Dir
28/11:30pm 22.5 ESE 4 5 1016.9 - 0.0 - - 10 - - - -
28/11:00pm 22.7 ESE 5 10 1017.0 - 0.0 - - 10 - - - -
28/10:30pm 20.9 SE 3 6 1017.2 - 0.0 - - 10 - - - -
28/10:00pm 20.3 SE 2 4 1017.4 - 0.0 - - 10 - - - -
28/09:30pm 20.4 SE 3 5 1017.5 - 0.0 - - 10 - - - -
28/09:00pm 20.4 CALM 0 4 1017.4 - 0.0 - - 10 - - - -
28/08:30pm 21.2 CALM 0 0 1017.1 - 0.0 - - 10 - - - -
28/08:00pm 22.0 SSE 1 4 1016.9 - 0.0 - - 10 - - - -
28/07:30pm 22.5 SE 4 6 1016.6 - 0.0 - - 10 - - - -
28/07:00pm 23.0 SE 5 9 1016.4 - 0.0 - - 10 - - - -
28/06:30pm 23.3 SSE 5 8 1016.3 - 0.0 - - 10 - - - -
28/06:00pm 23.9 SSE 6 11 1016.0 - 0.0 - Partly cloudy 10 - - - -
28/05:30pm 24.4 SE 5 8 1015.6 - 0.0 - Partly cloudy 10 - - - -
28/05:00pm 24.6 SE 7 12 1015.4 - 0.0 - Cloudy 10 - - - -
28/04:30pm 24.5 SE 7 13 1015.1 - 0.0 - Cloudy 10 - - - -
28/04:00pm 24.3 SE 7 13 1015.1 - 0.0 - Cloudy 10 - - - -
28/03:30pm 24.6 SE 7 12 1015.0 - 0.0 - Cloudy 10 - - - -
28/03:00pm 24.9 ESE 6 10 1015.0 - 0.0 - Mostly cloudy 10 - - - -
28/02:30pm 25.1 SE 6 10 1015.2 - 0.0 - Cloudy 10 - - - -
28/02:00pm 25.1 SE 7 11 1015.5 - 0.0 - Cloudy 10 - - - -

Other Formats:

Comma delimited format used in spreadsheet applications
http://www.bom.gov.au/fwo/IDD60701/IDD60701.94153.axf

JavaScript Object Notation format (JSON) in row-major order
http://www.bom.gov.au/fwo/IDD60701/IDD60701.94153.json